createdAt,value
2019-04-29T00:01:38.901Z,4.17
2019-04-29T00:04:09.764Z,3.57
2019-04-29T00:06:41.696Z,2.93
2019-04-29T00:09:19.052Z,4.00
2019-04-29T00:11:50.115Z,3.50
2019-04-29T00:14:20.815Z,3.47
2019-04-29T00:17:03.882Z,3.40
2019-04-29T00:19:42.058Z,3.90
2019-04-29T00:22:12.858Z,3.90
2019-04-29T00:24:44.507Z,4.30
2019-04-29T00:27:15.750Z,4.03
2019-04-29T00:29:46.502Z,4.10
2019-04-29T00:32:17.165Z,3.53
2019-04-29T00:34:49.033Z,3.40
2019-04-29T00:37:41.429Z,3.50
2019-04-29T00:40:36.749Z,3.77
2019-04-29T00:43:30.225Z,3.97
2019-04-29T00:46:01.013Z,3.63
2019-04-29T00:48:31.628Z,3.60
2019-04-29T00:51:02.355Z,3.70
2019-04-29T00:53:34.412Z,3.77
2019-04-29T00:56:05.936Z,3.10
2019-04-29T00:58:36.722Z,3.80
2019-04-29T01:01:12.106Z,3.67
2019-04-29T01:03:42.996Z,3.30
2019-04-29T01:06:13.538Z,3.23
2019-04-29T01:08:44.239Z,3.63
2019-04-29T01:11:15.169Z,3.30
2019-04-29T01:13:45.761Z,3.43
2019-04-29T01:16:17.830Z,3.33
2019-04-29T01:18:49.734Z,4.10
2019-04-29T01:21:20.413Z,3.70
2019-04-29T01:23:51.322Z,3.53
2019-04-29T01:26:40.561Z,3.53
2019-04-29T01:29:12.475Z,3.53
2019-04-29T01:31:43.114Z,3.90
2019-04-29T01:34:20.415Z,3.80
2019-04-29T01:36:51.020Z,3.50
2019-04-29T01:39:25.758Z,3.40
2019-04-29T01:42:12.389Z,2.97
2019-04-29T01:44:43.104Z,3.57
2019-04-29T01:47:13.724Z,3.60
2019-04-29T01:49:44.284Z,3.23
2019-04-29T01:52:15.299Z,3.60
2019-04-29T01:54:45.912Z,3.33
2019-04-29T01:57:16.489Z,3.10
2019-04-29T01:59:47.164Z,3.70
2019-04-29T02:02:17.866Z,4.30
2019-04-29T02:04:48.483Z,4.47
2019-04-29T02:07:20.804Z,4.30
2019-04-29T02:10:26.756Z,3.00
2019-04-29T02:12:57.519Z,2.77
2019-04-29T02:15:28.101Z,3.43
2019-04-29T02:17:58.803Z,3.80
2019-04-29T02:20:29.714Z,3.30
2019-04-29T02:23:37.598Z,4.50
2019-04-29T02:26:08.429Z,3.13
2019-04-29T02:28:39.353Z,3.40
2019-04-29T02:31:27.732Z,3.80
2019-04-29T02:33:58.453Z,3.30
2019-04-29T02:36:30.140Z,3.93
2019-04-29T02:39:35.152Z,3.23
2019-04-29T02:42:29.848Z,3.77
2019-04-29T02:45:06.256Z,3.50
2019-04-29T02:47:37.010Z,3.00
2019-04-29T02:50:07.702Z,2.80
2019-04-29T02:52:38.204Z,3.00
2019-04-29T02:55:10.915Z,2.93
2019-04-29T02:57:46.658Z,2.77
2019-04-29T03:00:28.256Z,2.50
2019-04-29T03:03:23.842Z,2.70
2019-04-29T03:06:00.747Z,2.70
2019-04-29T03:08:31.623Z,2.90
2019-04-29T03:11:02.491Z,2.53
2019-04-29T03:13:33.045Z,2.53
2019-04-29T03:16:04.287Z,2.80
2019-04-29T03:18:40.445Z,2.80
2019-04-29T03:21:20.125Z,2.60
2019-04-29T03:23:50.842Z,2.90
2019-04-29T03:26:21.384Z,2.10
2019-04-29T03:28:52.245Z,2.77
2019-04-29T03:31:23.136Z,2.90
2019-04-29T03:33:53.789Z,2.40
2019-04-29T03:36:24.481Z,2.80
2019-04-29T03:38:55.246Z,2.50
2019-04-29T03:41:29.115Z,2.50
2019-04-29T03:43:59.794Z,2.70
2019-04-29T03:46:30.540Z,2.57
2019-04-29T03:49:01.214Z,2.80
2019-04-29T03:51:31.877Z,2.50
2019-04-29T03:54:02.679Z,2.60
2019-04-29T03:56:36.231Z,2.97
2019-04-29T03:59:08.689Z,2.80
2019-04-29T04:01:50.613Z,3.00
2019-04-29T04:04:38.453Z,2.80
2019-04-29T04:07:26.811Z,2.90
2019-04-29T04:09:58.734Z,2.80
2019-04-29T04:12:29.487Z,2.77
2019-04-29T04:15:00.262Z,2.77
2019-04-29T04:17:42.714Z,3.30
2019-04-29T04:20:13.803Z,3.10
2019-04-29T04:22:49.771Z,4.00
2019-04-29T04:25:20.641Z,3.80
2019-04-29T04:27:51.361Z,4.40
2019-04-29T04:30:22.979Z,5.10
2019-04-29T04:32:53.800Z,5.10
2019-04-29T04:35:24.457Z,4.70
2019-04-29T04:37:55.255Z,4.90
2019-04-29T04:40:33.697Z,4.80
2019-04-29T04:43:05.916Z,4.73
2019-04-29T04:45:36.559Z,5.17
2019-04-29T04:48:43.499Z,6.13
2019-04-29T04:51:14.329Z,4.50
2019-04-29T04:53:45.188Z,4.10
2019-04-29T04:56:16.796Z,4.23
2019-04-29T04:58:47.393Z,4.50
2019-04-29T05:01:18.386Z,4.63
2019-04-29T05:03:49.147Z,4.13
2019-04-29T05:06:21.297Z,5.00
2019-04-29T05:08:52.014Z,4.53
2019-04-29T05:11:22.503Z,4.83
2019-04-29T05:13:53.474Z,5.07
2019-04-29T05:16:25.233Z,4.93
2019-04-29T05:18:55.875Z,3.80
2019-04-29T05:21:26.565Z,4.13
2019-04-29T05:23:57.320Z,4.00
2019-04-29T05:26:29.139Z,4.43
2019-04-29T05:29:00.044Z,3.80
2019-04-29T05:31:30.692Z,4.20
2019-04-29T05:34:01.336Z,4.47
2019-04-29T05:36:45.357Z,4.03
2019-04-29T05:39:25.536Z,3.80
2019-04-29T05:41:56.248Z,4.40
2019-04-29T05:44:52.191Z,4.50
2019-04-29T05:47:46.422Z,5.10
2019-04-29T05:50:28.946Z,5.50
2019-04-29T05:53:16.370Z,6.80
2019-04-29T05:55:44.135Z,8.30
2019-04-29T05:58:16.315Z,8.17
2019-04-29T06:11:53.980Z,13.50
2019-04-29T06:14:25.712Z,11.10
2019-04-29T06:16:57.552Z,14.00
2019-04-29T06:19:28.845Z,12.47
2019-04-29T06:22:03.790Z,7.10
2019-04-29T06:24:32.988Z,7.00
2019-04-29T06:27:05.452Z,7.73
2019-04-29T06:29:36.513Z,8.00
2019-04-29T06:32:11.786Z,6.10
2019-04-29T06:42:33.578Z,9.43
2019-04-29T06:45:04.346Z,11.80
2019-04-29T06:47:34.887Z,13.23
2019-04-29T06:53:01.224Z,16.73
2019-04-29T06:55:34.806Z,16.70
2019-04-29T06:58:06.105Z,17.57
2019-04-29T07:00:37.495Z,17.90
2019-04-29T07:03:08.175Z,14.57
2019-04-29T07:05:39.262Z,12.57
2019-04-29T07:08:10.182Z,10.67
2019-04-29T07:13:57.584Z,7.37
2019-04-29T07:23:40.277Z,8.20
2019-04-29T07:26:12.535Z,7.87
2019-04-29T07:28:43.577Z,7.87
2019-04-29T07:31:14.611Z,7.87
2019-04-29T08:00:58.781Z,6.70
2019-04-29T08:03:29.425Z,7.60
2019-04-29T08:06:01.024Z,6.30
2019-04-29T08:08:32.710Z,6.40
2019-04-29T08:11:04.504Z,7.07
2019-04-29T08:13:35.544Z,6.40
2019-04-29T08:16:06.473Z,6.07
2019-04-29T08:18:37.209Z,5.87
2019-04-29T08:21:10.257Z,5.50
2019-04-29T08:23:42.451Z,6.00
2019-04-29T08:26:13.164Z,6.30
2019-04-29T08:28:44.396Z,5.77
2019-04-29T08:31:16.604Z,5.53
2019-04-29T08:33:48.732Z,5.70
2019-04-29T08:36:19.888Z,5.00
2019-04-29T08:38:51.790Z,5.70
2019-04-29T08:41:28.452Z,5.30
2019-04-29T08:47:10.838Z,5.20
2019-04-29T08:49:41.509Z,5.50
2019-04-29T08:52:13.680Z,5.47
2019-04-29T08:58:17.581Z,5.03
2019-04-29T09:00:51.278Z,4.87
2019-04-29T09:26:13.574Z,5.20
2019-04-29T09:28:44.474Z,4.80
2019-04-29T09:34:35.956Z,5.37
2019-04-29T09:37:07.082Z,5.67
2019-04-29T09:39:43.381Z,5.23
2019-04-29T09:42:51.840Z,5.60
2019-04-29T09:45:34.861Z,6.00
2019-04-29T09:55:39.888Z,6.17
2019-04-29T09:58:28.245Z,6.07
2019-04-29T10:01:21.208Z,5.57
2019-04-29T10:04:05.515Z,5.80
2019-04-29T10:06:58.460Z,6.17
2019-04-29T10:09:29.360Z,5.70
2019-04-29T10:15:07.669Z,5.87
2019-04-29T10:17:57.335Z,6.73
2019-04-29T10:20:47.730Z,5.90
2019-04-29T10:23:18.503Z,5.83
2019-04-29T10:25:49.443Z,5.30
2019-04-29T10:31:49.041Z,5.93
2019-04-29T10:34:20.334Z,5.40
2019-04-29T10:36:52.537Z,5.50
2019-04-29T10:40:47.209Z,5.80
2019-04-29T13:37:27.507Z,7.47
2019-04-29T13:39:58.807Z,6.40
2019-04-29T13:42:29.399Z,6.70
2019-04-29T13:45:07.794Z,7.33
2019-04-29T13:47:54.409Z,7.30
2019-04-29T13:50:40.249Z,7.17
2019-04-29T13:53:16.703Z,7.27
2019-04-29T13:55:49.179Z,6.97
2019-04-29T13:58:22.266Z,7.13
2019-04-29T14:01:01.940Z,7.27
2019-04-29T14:03:47.165Z,6.53
2019-04-29T14:06:18.674Z,6.10
2019-04-29T14:08:54.109Z,6.43
2019-04-29T14:11:27.277Z,6.67
2019-04-29T14:13:57.956Z,7.83
2019-04-29T14:16:28.982Z,7.40
2019-04-29T14:19:00.910Z,6.93
2019-04-29T14:21:32.148Z,6.97
2019-04-29T14:24:03.035Z,6.60
2019-04-29T14:26:37.072Z,7.20
2019-04-29T14:29:06.885Z,7.50
2019-04-29T14:31:37.720Z,7.43
2019-04-29T14:34:20.370Z,6.77
2019-04-29T14:36:50.647Z,7.87
2019-04-29T14:39:36.090Z,6.87
2019-04-29T14:41:57.858Z,7.33
2019-04-29T14:44:58.438Z,7.97
2019-04-29T14:47:36.975Z,7.20
2019-04-29T14:50:10.656Z,10.67
2019-04-29T14:52:44.772Z,8.00
2019-04-29T14:55:15.061Z,7.77
2019-04-29T14:57:46.036Z,8.80
2019-04-29T15:00:28.048Z,7.90
2019-04-29T15:03:19.202Z,6.70
2019-04-29T15:05:50.259Z,8.03
2019-04-29T15:08:23.270Z,8.23
2019-04-29T15:10:54.477Z,8.03
2019-04-29T15:13:27.017Z,9.00
2019-04-29T15:16:09.417Z,7.87
2019-04-29T15:18:50.654Z,8.03
2019-04-29T15:21:43.728Z,9.57
2019-04-29T15:24:12.553Z,9.00
2019-04-29T15:26:43.302Z,8.27
2019-04-29T15:32:58.044Z,9.90
2019-04-29T15:35:29.061Z,9.43
2019-04-29T15:37:59.819Z,10.60
2019-04-29T15:40:31.314Z,10.63
2019-04-29T15:43:02.178Z,10.10
2019-04-29T15:45:34.243Z,10.60
2019-04-29T15:48:06.446Z,11.30
2019-04-29T15:50:38.994Z,11.80
2019-04-29T15:53:10.132Z,11.07
2019-04-29T15:55:41.310Z,11.00
2019-04-29T15:58:12.829Z,9.93
2019-04-29T16:00:43.831Z,9.77
2019-04-29T16:03:17.885Z,10.70
2019-04-29T16:06:20.995Z,9.47
2019-04-29T16:09:04.954Z,9.13
2019-04-29T16:11:53.178Z,9.57
2019-04-29T16:14:24.796Z,11.37
2019-04-29T16:16:55.626Z,10.10
2019-04-29T16:19:26.379Z,10.10
2019-04-29T16:21:57.290Z,10.20
2019-04-29T16:24:37.642Z,9.63
2019-04-29T16:27:01.125Z,10.90
2019-04-29T16:29:33.017Z,8.90
2019-04-29T16:32:05.035Z,10.50
2019-04-29T16:34:37.394Z,10.97
2019-04-29T16:37:09.019Z,11.07
2019-04-29T16:39:41.375Z,11.70
2019-04-29T16:42:25.321Z,15.00
2019-04-29T16:44:56.253Z,13.43
2019-04-29T16:47:27.218Z,11.87
2019-04-29T16:50:04.645Z,14.07
2019-04-29T16:52:31.869Z,13.07
2019-04-29T16:55:04.206Z,12.00
2019-04-29T16:57:35.195Z,13.10
2019-04-29T17:00:13.664Z,12.30
2019-04-29T17:02:40.127Z,14.17
2019-04-29T17:05:11.438Z,13.80
2019-04-29T17:07:42.378Z,14.37
2019-04-29T17:10:24.174Z,17.90
2019-04-29T17:12:57.438Z,14.20
2019-04-29T17:15:30.215Z,17.00
2019-04-29T17:18:01.151Z,18.80
2019-04-29T17:20:31.749Z,18.67
2019-04-29T17:23:02.690Z,20.10
2019-04-29T17:25:33.363Z,20.07
2019-04-29T17:28:25.462Z,18.00
2019-04-29T17:31:22.130Z,16.80
2019-04-29T17:34:07.867Z,16.30
2019-04-29T17:36:39.132Z,15.57
2019-04-29T17:39:10.525Z,18.37
2019-04-29T17:41:42.649Z,16.53
2019-04-29T17:44:30.749Z,16.90
2019-04-29T17:47:07.071Z,15.30
2019-04-29T17:50:06.532Z,14.97
2019-04-29T17:52:35.269Z,16.50
2019-04-29T17:55:24.964Z,21.83
2019-04-29T17:58:08.647Z,20.27
2019-04-29T18:00:58.288Z,17.97
2019-04-29T18:03:41.615Z,16.70
2019-04-29T18:06:24.270Z,17.90
2019-04-29T18:09:13.511Z,17.27
2019-04-29T18:11:51.595Z,21.73
2019-04-29T18:14:16.956Z,15.47
2019-04-29T18:16:47.937Z,15.07
2019-04-29T18:19:39.414Z,16.17
2019-04-29T18:22:35.497Z,16.40
2019-04-29T18:25:31.051Z,17.03
2019-04-29T18:28:00.551Z,14.97
2019-04-29T18:30:36.021Z,14.93
2019-04-29T18:33:05.381Z,15.40
2019-04-29T18:35:36.843Z,16.73
2019-04-29T18:38:11.952Z,17.33
2019-04-29T18:40:42.266Z,17.30
2019-04-29T18:43:15.025Z,16.63
2019-04-29T18:45:55.839Z,18.30
2019-04-29T18:48:21.476Z,15.37
2019-04-29T18:50:51.182Z,17.07
2019-04-29T18:53:22.576Z,16.33
2019-04-29T18:55:55.021Z,16.20
2019-04-29T18:58:26.756Z,16.03
2019-04-29T19:00:59.117Z,17.50
2019-04-29T19:03:46.676Z,15.67
2019-04-29T19:06:17.401Z,16.70
2019-04-29T19:08:49.065Z,16.70
2019-04-29T19:11:29.892Z,16.20
2019-04-29T19:13:52.427Z,16.40
2019-04-29T19:34:45.932Z,17.47
2019-04-29T19:37:16.945Z,18.27
2019-04-29T19:39:47.596Z,20.10
2019-04-29T19:42:28.715Z,17.00
2019-04-29T19:44:50.659Z,20.87
2019-04-29T19:47:21.611Z,18.80
2019-04-29T19:49:53.362Z,19.30
2019-04-29T19:52:30.495Z,18.47
2019-04-29T19:54:57.315Z,19.60
2019-04-29T19:57:29.613Z,20.57
2019-04-29T20:00:00.906Z,19.40
2019-04-29T20:02:32.579Z,21.17
2019-04-29T20:05:23.411Z,21.67
2019-04-29T20:07:52.305Z,21.20
2019-04-29T20:10:28.434Z,21.30
2019-04-29T20:12:57.799Z,21.87
2019-04-29T20:15:33.968Z,22.13
2019-04-29T20:18:23.758Z,24.37
2019-04-29T20:21:08.835Z,24.80
2019-04-29T20:23:38.472Z,25.73
2019-04-29T20:26:15.479Z,25.87
2019-04-29T20:28:40.283Z,26.40
2019-04-29T20:31:20.925Z,24.00
2019-04-29T20:33:47.003Z,25.77
2019-04-29T20:36:29.051Z,23.97
2019-04-29T20:38:50.864Z,25.13
2019-04-29T20:41:38.112Z,25.80
2019-04-29T20:43:56.206Z,25.43
2019-04-29T20:46:41.033Z,25.20
2019-04-29T20:49:00.062Z,26.00
2019-04-29T20:51:47.833Z,25.87
2019-04-29T20:54:15.918Z,27.20
2019-04-29T20:56:42.414Z,25.87
2019-04-29T20:59:15.501Z,26.40
2019-04-29T21:01:52.456Z,26.40
2019-04-29T21:04:33.795Z,25.20
2019-04-29T21:07:00.447Z,26.40
2019-04-29T21:09:30.155Z,26.13
2019-04-29T21:12:21.467Z,27.27
2019-04-29T21:14:57.876Z,25.87
2019-04-29T21:17:31.831Z,24.30
2019-04-29T21:20:01.210Z,27.60
2019-04-29T21:22:32.060Z,26.80
2019-04-29T21:25:03.148Z,27.70
2019-04-29T21:27:35.390Z,26.77
2019-04-29T21:30:06.520Z,26.77
2019-04-29T21:32:38.961Z,25.87
2019-04-29T21:35:27.026Z,28.70
2019-04-29T21:38:18.032Z,28.77
2019-04-29T21:40:56.011Z,28.27
2019-04-29T21:43:28.744Z,29.30
2019-04-29T21:46:00.163Z,29.30
2019-04-29T21:48:34.053Z,30.90
2019-04-29T21:51:06.828Z,31.50
2019-04-29T21:53:40.248Z,30.70
2019-04-29T21:56:10.548Z,34.37
2019-04-29T21:58:41.546Z,30.37
2019-04-29T22:01:16.322Z,30.50
2019-04-29T22:03:47.003Z,34.53
2019-04-29T22:06:17.582Z,32.73
2019-04-29T22:08:48.600Z,32.33
2019-04-29T22:11:19.906Z,31.27
2019-04-29T22:13:50.830Z,33.47
2019-04-29T22:16:21.588Z,33.50
2019-04-29T22:18:53.049Z,34.37
2019-04-29T22:21:25.909Z,34.57
2019-04-29T22:23:56.533Z,35.23
2019-04-29T22:26:27.271Z,34.50
2019-04-29T22:29:03.139Z,33.63
2019-04-29T22:31:33.882Z,36.67
2019-04-29T22:34:05.557Z,33.80
2019-04-29T22:36:36.363Z,32.87
2019-04-29T22:39:07.961Z,36.17
2019-04-29T22:41:57.523Z,37.43
2019-04-29T22:44:28.360Z,34.77
2019-04-29T22:46:59.155Z,35.67
2019-04-29T22:49:29.759Z,36.07
2019-04-29T22:52:00.437Z,36.90
2019-04-29T22:54:31.369Z,36.97
2019-04-29T22:57:05.599Z,36.33
2019-04-29T22:59:36.595Z,35.97
2019-04-29T23:02:07.517Z,36.30
2019-04-29T23:04:38.183Z,35.90
2019-04-29T23:07:09.051Z,37.13
2019-04-29T23:09:41.653Z,35.00
2019-04-29T23:12:18.265Z,36.17
2019-04-29T23:14:47.215Z,38.40
2019-04-29T23:17:18.083Z,36.20
2019-04-29T23:19:51.855Z,39.30
2019-04-29T23:22:41.748Z,38.80
2019-04-29T23:25:21.681Z,39.07
2019-04-29T23:27:52.711Z,38.67
2019-04-29T23:30:27.115Z,39.87
2019-04-29T23:32:58.244Z,37.20
2019-04-29T23:35:29.112Z,39.30
2019-04-29T23:38:04.041Z,37.93
2019-04-29T23:40:33.928Z,38.93
2019-04-29T23:43:06.171Z,37.83
2019-04-29T23:45:36.945Z,37.07
2019-04-29T23:48:07.880Z,37.40
2019-04-29T23:50:38.751Z,40.60
2019-04-29T23:53:09.852Z,39.50
2019-04-29T23:55:40.775Z,39.30
2019-04-29T23:58:32.611Z,37.03
